createdAt,value
2018-06-22T00:00:28.218Z,2.30
2018-06-22T00:02:55.690Z,2.23
2018-06-22T00:05:23.400Z,2.30
2018-06-22T00:07:50.945Z,2.20
2018-06-22T00:10:18.484Z,2.30
2018-06-22T00:12:46.046Z,2.63
2018-06-22T00:15:13.583Z,2.30
2018-06-22T00:17:41.308Z,2.27
2018-06-22T00:20:08.847Z,2.20
2018-06-22T00:22:36.391Z,2.33
2018-06-22T00:25:03.948Z,1.90
2018-06-22T00:27:31.509Z,2.73
2018-06-22T00:29:59.023Z,2.03
2018-06-22T00:32:26.559Z,2.00
2018-06-22T00:34:54.078Z,2.47
2018-06-22T00:37:21.633Z,2.10
2018-06-22T00:39:49.217Z,1.60
2018-06-22T00:42:16.761Z,2.17
2018-06-22T00:44:44.297Z,1.80
2018-06-22T00:47:11.820Z,1.73
2018-06-22T00:49:39.899Z,2.10
2018-06-22T00:52:07.457Z,2.00
2018-06-22T00:54:35.012Z,1.57
2018-06-22T00:57:02.562Z,1.70
2018-06-22T00:59:30.125Z,1.53
2018-06-22T01:01:57.657Z,1.80
2018-06-22T01:04:25.183Z,2.00
2018-06-22T01:06:52.686Z,1.80
2018-06-22T01:09:20.261Z,1.43
2018-06-22T01:11:50.228Z,2.13
2018-06-22T01:14:17.781Z,2.00
2018-06-22T01:16:45.350Z,2.30
2018-06-22T01:19:12.866Z,2.00
2018-06-22T01:21:40.906Z,1.60
2018-06-22T01:24:08.439Z,2.30
2018-06-22T01:26:35.971Z,1.70
2018-06-22T01:29:09.187Z,1.80
2018-06-22T01:31:36.706Z,1.40
2018-06-22T01:34:04.209Z,1.83
2018-06-22T01:36:31.739Z,1.60
2018-06-22T01:38:59.275Z,1.60
2018-06-22T01:41:26.941Z,1.40
2018-06-22T01:43:54.518Z,2.63
2018-06-22T01:46:22.134Z,1.20
2018-06-22T01:48:49.836Z,1.90
2018-06-22T01:51:17.518Z,1.83
2018-06-22T01:53:45.136Z,1.97
2018-06-22T01:56:12.639Z,1.67
2018-06-22T01:58:40.175Z,1.90
2018-06-22T02:01:07.698Z,1.37
2018-06-22T02:03:35.348Z,1.70
2018-06-22T02:06:02.876Z,1.73
2018-06-22T02:08:30.402Z,1.83
2018-06-22T02:10:57.978Z,1.80
2018-06-22T02:13:25.510Z,1.37
2018-06-22T02:15:53.050Z,1.80
2018-06-22T02:18:20.616Z,1.40
2018-06-22T02:20:48.192Z,1.30
2018-06-22T02:23:19.743Z,1.43
2018-06-22T02:25:47.350Z,1.67
2018-06-22T02:28:14.799Z,1.63
2018-06-22T02:30:42.371Z,1.03
2018-06-22T02:33:09.898Z,1.47
2018-06-22T02:35:37.437Z,1.67
2018-06-22T02:38:05.065Z,1.70
2018-06-22T02:40:32.581Z,2.43
2018-06-22T02:43:00.133Z,1.37
2018-06-22T02:45:27.654Z,1.97
2018-06-22T02:47:55.182Z,1.43
2018-06-22T02:50:22.671Z,1.50
2018-06-22T02:52:50.133Z,1.90
2018-06-22T02:55:17.612Z,1.70
2018-06-22T02:57:45.174Z,2.57
2018-06-22T03:00:12.732Z,1.67
2018-06-22T03:02:40.257Z,1.70
2018-06-22T03:05:07.798Z,1.70
2018-06-22T03:07:35.357Z,1.30
2018-06-22T03:10:03.180Z,1.77
2018-06-22T03:12:30.747Z,1.30
2018-06-22T03:14:58.292Z,1.50
2018-06-22T03:17:25.799Z,1.47
2018-06-22T03:19:53.335Z,1.97
2018-06-22T03:22:20.872Z,2.10
2018-06-22T03:24:48.390Z,1.53
2018-06-22T03:27:15.895Z,1.40
2018-06-22T03:29:43.466Z,1.80
2018-06-22T03:32:11.044Z,1.60
2018-06-22T03:34:38.541Z,1.70
2018-06-22T03:37:06.104Z,1.60
2018-06-22T03:39:33.777Z,1.50
2018-06-22T03:42:01.308Z,1.50
2018-06-22T03:44:28.828Z,1.77
2018-06-22T03:46:56.352Z,1.67
2018-06-22T03:49:23.864Z,1.43
2018-06-22T03:51:51.362Z,1.53
2018-06-22T03:54:18.910Z,1.40
2018-06-22T03:56:46.520Z,2.50
2018-06-22T03:59:14.040Z,1.23
2018-06-22T04:01:41.636Z,2.03
2018-06-22T04:04:09.186Z,1.30
2018-06-22T04:06:36.745Z,1.40
2018-06-22T04:09:05.640Z,1.60
2018-06-22T04:11:33.232Z,1.20
2018-06-22T04:14:00.746Z,1.60
2018-06-22T04:16:28.257Z,1.40
2018-06-22T04:18:55.805Z,1.60
2018-06-22T04:21:23.327Z,1.40
2018-06-22T04:23:50.832Z,2.00
2018-06-22T04:26:18.381Z,1.50
2018-06-22T04:28:45.907Z,1.60
2018-06-22T04:31:13.439Z,1.60
2018-06-22T04:33:40.993Z,1.40
2018-06-22T04:36:08.515Z,1.17
2018-06-22T04:38:36.137Z,1.10
2018-06-22T04:41:03.961Z,1.33
2018-06-22T04:43:31.543Z,1.80
2018-06-22T04:45:59.111Z,1.57
2018-06-22T04:48:26.639Z,1.27
2018-06-22T04:50:54.172Z,1.00
2018-06-22T04:53:21.696Z,1.50
2018-06-22T04:55:49.279Z,1.33
2018-06-22T04:58:16.836Z,1.80
2018-06-22T05:00:44.365Z,1.07
2018-06-22T05:03:11.901Z,1.20
2018-06-22T05:05:39.459Z,1.30
2018-06-22T05:08:06.957Z,1.40
2018-06-22T05:10:34.502Z,1.50
2018-06-22T05:13:02.167Z,1.73
2018-06-22T05:15:29.729Z,0.97
2018-06-22T05:17:57.260Z,1.33
2018-06-22T05:20:24.817Z,1.30
2018-06-22T05:22:52.367Z,1.40
2018-06-22T05:25:19.919Z,1.63
2018-06-22T05:27:47.476Z,1.20
2018-06-22T05:30:15.213Z,1.73
2018-06-22T05:32:42.764Z,1.27
2018-06-22T05:35:10.345Z,1.67
2018-06-22T05:37:37.926Z,1.77
2018-06-22T05:40:05.552Z,1.53
2018-06-22T05:42:33.060Z,1.83
2018-06-22T05:45:00.610Z,1.33
2018-06-22T05:47:28.118Z,1.80
2018-06-22T05:49:55.658Z,1.40
2018-06-22T05:52:23.252Z,2.00
2018-06-22T05:54:50.800Z,1.70
2018-06-22T05:57:18.412Z,1.67
2018-06-22T05:59:46.022Z,1.97
2018-06-22T06:02:13.570Z,1.33
2018-06-22T06:04:41.124Z,1.60
2018-06-22T06:07:08.618Z,2.17
2018-06-22T06:09:36.187Z,2.13
2018-06-22T06:12:03.680Z,1.60
2018-06-22T06:14:31.262Z,1.47
2018-06-22T06:16:58.834Z,1.70
2018-06-22T06:19:26.381Z,2.20
2018-06-22T06:21:53.937Z,1.60
2018-06-22T06:24:21.493Z,1.20
2018-06-22T06:26:49.033Z,1.90
2018-06-22T06:29:16.592Z,2.10
2018-06-22T06:31:44.185Z,1.97
2018-06-22T06:34:11.728Z,2.07
2018-06-22T06:36:39.250Z,1.97
2018-06-22T06:39:07.189Z,2.37
2018-06-22T06:41:34.764Z,2.50
2018-06-22T06:44:02.348Z,1.93
2018-06-22T06:46:29.926Z,2.03
2018-06-22T06:48:57.491Z,1.77
2018-06-22T06:51:25.072Z,1.67
2018-06-22T06:53:52.652Z,1.50
2018-06-22T06:56:20.238Z,2.03
2018-06-22T06:58:47.774Z,2.10
2018-06-22T07:01:15.380Z,1.80
2018-06-22T07:03:42.968Z,2.00
2018-06-22T07:06:10.518Z,2.40
2018-06-22T07:08:38.211Z,1.93
2018-06-22T07:11:05.825Z,1.90
2018-06-22T07:13:33.366Z,2.00
2018-06-22T07:16:00.916Z,1.90
2018-06-22T07:18:28.476Z,1.70
2018-06-22T07:20:56.033Z,1.97
2018-06-22T07:23:23.634Z,1.90
2018-06-22T07:25:51.135Z,1.97
2018-06-22T07:28:18.653Z,2.33
2018-06-22T07:30:46.260Z,1.60
2018-06-22T07:33:13.802Z,2.03
2018-06-22T07:35:41.377Z,1.60
2018-06-22T07:38:08.903Z,2.20
2018-06-22T07:40:36.421Z,1.60
2018-06-22T07:43:03.993Z,2.43
2018-06-22T07:45:31.559Z,2.30
2018-06-22T07:47:59.113Z,2.00
2018-06-22T07:50:26.655Z,1.83
2018-06-22T07:52:54.173Z,1.70
2018-06-22T07:55:21.773Z,1.90
2018-06-22T07:57:49.344Z,2.30
2018-06-22T08:00:16.841Z,2.03
2018-06-22T08:02:44.395Z,2.00
2018-06-22T08:05:11.911Z,2.30
2018-06-22T08:07:39.438Z,1.87
2018-06-22T08:10:07.109Z,1.90
2018-06-22T08:12:34.634Z,2.00
2018-06-22T08:15:02.179Z,1.97
2018-06-22T08:17:29.705Z,1.77
2018-06-22T08:19:57.231Z,2.30
2018-06-22T08:22:24.810Z,1.80
2018-06-22T08:24:52.340Z,2.00
2018-06-22T08:27:19.865Z,2.73
2018-06-22T08:29:47.423Z,2.00
2018-06-22T08:32:15.015Z,1.90
2018-06-22T08:34:42.609Z,1.70
2018-06-22T08:37:10.127Z,2.10
2018-06-22T08:39:37.664Z,2.23
2018-06-22T08:42:05.365Z,2.00
2018-06-22T08:44:33.028Z,1.60
2018-06-22T08:47:00.598Z,2.13
2018-06-22T08:49:28.169Z,2.53
2018-06-22T08:51:55.980Z,1.87
2018-06-22T08:54:23.492Z,1.83
2018-06-22T08:56:51.037Z,2.33
2018-06-22T08:59:18.573Z,2.20
2018-06-22T09:01:46.075Z,2.10
2018-06-22T09:04:13.665Z,2.30
2018-06-22T09:06:41.194Z,2.40
2018-06-22T09:09:08.720Z,2.80
2018-06-22T09:11:36.271Z,2.23
2018-06-22T09:14:03.798Z,1.90
2018-06-22T09:16:31.430Z,1.87
2018-06-22T09:18:58.984Z,2.47
2018-06-22T09:21:26.493Z,2.40
2018-06-22T09:23:54.224Z,2.33
2018-06-22T09:26:21.783Z,2.23
2018-06-22T09:28:49.361Z,1.93
2018-06-22T09:31:16.944Z,2.37
2018-06-22T09:33:44.597Z,2.30
2018-06-22T09:36:12.249Z,3.00
2018-06-22T09:38:39.785Z,2.03
2018-06-22T09:41:07.352Z,2.10
2018-06-22T09:43:34.891Z,3.13
2018-06-22T09:46:02.493Z,2.00
2018-06-22T09:48:30.070Z,2.17
2018-06-22T09:50:57.661Z,2.57
2018-06-22T09:53:25.299Z,2.10
2018-06-22T09:55:52.849Z,2.10
2018-06-22T09:58:20.426Z,2.50
2018-06-22T10:00:49.935Z,2.30
2018-06-22T10:03:17.993Z,2.13
2018-06-22T10:05:45.604Z,2.33
2018-06-22T10:08:13.106Z,2.37
2018-06-22T10:10:40.755Z,1.50
2018-06-22T10:13:08.276Z,2.17
2018-06-22T10:15:35.807Z,2.20
2018-06-22T10:18:03.369Z,2.00
2018-06-22T10:20:31.409Z,2.13
2018-06-22T10:22:58.958Z,2.40
2018-06-22T10:25:26.584Z,2.30
2018-06-22T10:27:54.230Z,2.13
2018-06-22T10:30:21.910Z,1.70
2018-06-22T10:32:49.511Z,2.00
2018-06-22T10:35:17.076Z,2.53
2018-06-22T10:37:44.667Z,2.07
2018-06-22T10:40:12.274Z,1.93
2018-06-22T10:42:39.818Z,1.73
2018-06-22T10:45:07.446Z,1.97
2018-06-22T10:47:35.246Z,1.90
2018-06-22T10:50:02.896Z,1.63
2018-06-22T10:52:30.513Z,1.83
2018-06-22T10:54:58.100Z,1.90
2018-06-22T10:57:25.648Z,2.10
2018-06-22T10:59:53.271Z,1.73
2018-06-22T11:02:20.749Z,1.80
2018-06-22T11:04:48.332Z,1.63
2018-06-22T11:07:15.898Z,1.40
2018-06-22T11:09:43.506Z,1.73
2018-06-22T11:12:11.069Z,1.50
2018-06-22T11:14:38.627Z,2.00
2018-06-22T11:17:06.188Z,1.73
2018-06-22T11:19:33.754Z,1.70
2018-06-22T11:22:01.362Z,1.97
2018-06-22T11:24:28.947Z,1.90
2018-06-22T11:26:56.496Z,2.27
2018-06-22T11:29:24.079Z,2.77
2018-06-22T11:31:51.658Z,2.10
2018-06-22T11:34:19.217Z,2.20
2018-06-22T11:36:46.804Z,1.93
2018-06-22T11:39:14.368Z,1.90
2018-06-22T11:41:41.953Z,2.50
2018-06-22T11:44:09.842Z,2.20
2018-06-22T11:46:37.622Z,2.10
2018-06-22T11:49:05.222Z,2.43
2018-06-22T11:51:32.794Z,2.83
2018-06-22T11:54:00.680Z,2.13
2018-06-22T11:56:28.257Z,2.30
2018-06-22T11:58:55.822Z,2.13
2018-06-22T12:01:23.360Z,2.30
2018-06-22T12:03:50.940Z,2.07
2018-06-22T12:06:18.567Z,2.70
2018-06-22T12:08:46.086Z,2.43
2018-06-22T12:11:13.733Z,2.60
2018-06-22T12:13:41.318Z,2.23
2018-06-22T12:16:09.320Z,2.47
2018-06-22T12:18:36.881Z,1.93
2018-06-22T12:21:04.447Z,2.07
2018-06-22T12:23:31.995Z,2.53
2018-06-22T12:25:59.589Z,2.70
2018-06-22T12:28:27.177Z,1.93
2018-06-22T12:30:54.771Z,1.83
2018-06-22T12:33:22.313Z,2.07
2018-06-22T12:35:49.894Z,2.23
2018-06-22T12:38:17.475Z,2.13
2018-06-22T12:40:45.091Z,2.40
2018-06-22T12:43:12.687Z,2.10
2018-06-22T12:45:40.298Z,1.90
2018-06-22T12:48:07.888Z,2.20
2018-06-22T12:50:35.510Z,1.90
2018-06-22T12:53:03.105Z,2.27
2018-06-22T12:55:30.703Z,1.80
2018-06-22T12:57:58.273Z,1.90
2018-06-22T13:00:25.819Z,2.27
2018-06-22T13:02:53.367Z,1.70
2018-06-22T13:05:20.960Z,2.40
2018-06-22T13:07:48.565Z,2.90
2018-06-22T13:10:16.209Z,1.80
2018-06-22T13:12:43.830Z,3.07
2018-06-22T13:15:11.363Z,2.13
2018-06-22T13:17:39.199Z,2.33
2018-06-22T13:20:06.771Z,2.10
2018-06-22T13:22:34.318Z,2.30
2018-06-22T13:25:01.925Z,1.80
2018-06-22T13:27:29.590Z,2.07
2018-06-22T13:29:57.209Z,1.60
2018-06-22T13:32:24.785Z,2.00
2018-06-22T13:34:52.303Z,1.40
2018-06-22T13:37:19.932Z,1.83
2018-06-22T13:39:47.487Z,1.30
2018-06-22T13:42:15.089Z,1.90
2018-06-22T13:44:42.703Z,1.77
2018-06-22T13:47:10.282Z,1.60
2018-06-22T13:49:37.870Z,2.20
2018-06-22T13:52:05.470Z,1.43
2018-06-22T13:54:32.990Z,1.33
2018-06-22T13:57:00.630Z,1.97
2018-06-22T13:59:28.180Z,1.77
2018-06-22T14:01:55.817Z,2.00
2018-06-22T14:04:28.929Z,1.20
2018-06-22T14:06:56.759Z,1.87
2018-06-22T14:09:24.400Z,1.60
2018-06-22T14:11:51.925Z,1.20
2018-06-22T14:14:19.519Z,1.57
2018-06-22T14:16:47.050Z,1.53
2018-06-22T14:19:14.603Z,1.60
2018-06-22T14:21:42.176Z,1.30
2018-06-22T14:24:09.702Z,1.70
2018-06-22T14:26:37.311Z,1.00
2018-06-22T14:29:05.097Z,1.00
2018-06-22T14:31:32.701Z,1.63
2018-06-22T14:34:00.348Z,1.07
2018-06-22T14:36:28.052Z,1.07
2018-06-22T14:38:55.963Z,1.37
2018-06-22T14:41:23.719Z,1.57
2018-06-22T14:43:51.346Z,1.30
2018-06-22T14:46:18.960Z,1.30
2018-06-22T14:51:20.999Z,1.67
2018-06-22T14:53:54.110Z,1.50
2018-06-22T14:56:27.285Z,1.33
2018-06-22T14:59:00.556Z,1.63
2018-06-22T15:01:33.749Z,1.23
2018-06-22T15:04:06.998Z,1.40
2018-06-22T15:06:40.260Z,1.47
2018-06-22T15:09:08.823Z,1.30
2018-06-22T15:11:36.597Z,0.93
2018-06-22T15:14:04.254Z,1.00
2018-06-22T15:16:31.833Z,1.10
2018-06-22T15:18:59.415Z,1.50
2018-06-22T15:21:27.040Z,1.20
2018-06-22T15:23:54.613Z,1.30
2018-06-22T15:26:22.226Z,1.50
2018-06-22T15:28:49.811Z,1.00
2018-06-22T15:31:17.479Z,1.20
2018-06-22T15:33:50.654Z,1.37
2018-06-22T15:36:23.882Z,1.40
2018-06-22T15:38:57.069Z,1.60
2018-06-22T15:41:30.120Z,1.30
2018-06-22T15:44:03.400Z,1.10
2018-06-22T15:46:36.781Z,1.60
2018-06-22T15:49:10.042Z,1.50
2018-06-22T15:51:43.389Z,1.37
2018-06-22T15:54:16.674Z,1.40
2018-06-22T15:56:44.292Z,1.60
2018-06-22T15:59:11.845Z,1.20
2018-06-22T16:01:39.380Z,1.77
2018-06-22T16:04:10.245Z,1.43
2018-06-22T16:06:37.914Z,1.40
2018-06-22T16:09:07.172Z,2.77
2018-06-22T16:11:35.176Z,1.20
2018-06-22T16:14:08.446Z,1.50
2018-06-22T16:16:41.728Z,1.40
2018-06-22T16:19:14.978Z,1.23
2018-06-22T16:21:48.197Z,1.10
2018-06-22T16:24:21.439Z,1.50
2018-06-22T16:26:54.702Z,1.20
2018-06-22T16:29:22.256Z,1.20
2018-06-22T16:31:49.816Z,1.63
2018-06-22T16:34:17.401Z,1.30
2018-06-22T16:36:44.993Z,1.47
2018-06-22T16:39:13.647Z,1.67
2018-06-22T16:41:41.232Z,2.10
2018-06-22T16:44:09.449Z,1.87
2018-06-22T16:46:37.084Z,1.60
2018-06-22T16:49:04.939Z,1.93
2018-06-22T16:51:32.859Z,1.60
2018-06-22T16:54:00.401Z,1.60
2018-06-22T16:56:28.113Z,1.40
2018-06-22T16:59:00.247Z,0.87
2018-06-22T17:01:28.119Z,1.60
2018-06-22T17:03:55.713Z,1.60
2018-06-22T17:06:23.541Z,1.13
2018-06-22T17:08:56.635Z,1.63
2018-06-22T17:11:29.793Z,1.47
2018-06-22T17:14:03.037Z,1.30
2018-06-22T17:16:36.133Z,1.50
2018-06-22T17:19:03.819Z,1.83
2018-06-22T17:21:31.417Z,1.40
2018-06-22T17:23:59.007Z,1.40
2018-06-22T17:26:26.641Z,1.50
2018-06-22T17:28:54.272Z,1.30
2018-06-22T17:31:21.895Z,1.23
2018-06-22T17:33:49.518Z,1.40
2018-06-22T17:36:17.111Z,1.53
2018-06-22T17:38:44.700Z,1.73
2018-06-22T17:41:12.274Z,1.60
2018-06-22T17:43:39.899Z,1.37
2018-06-22T17:46:07.588Z,1.40
2018-06-22T17:48:35.182Z,1.87
2018-06-22T17:51:02.802Z,1.33
2018-06-22T17:53:30.405Z,2.00
2018-06-22T17:55:58.017Z,1.40
2018-06-22T17:58:25.634Z,1.40
2018-06-22T18:00:58.775Z,1.60
2018-06-22T18:03:31.835Z,1.70
2018-06-22T18:06:05.044Z,1.70
2018-06-22T18:08:38.253Z,1.90
2018-06-22T18:11:11.437Z,1.80
2018-06-22T18:13:39.132Z,1.80
2018-06-22T18:16:06.784Z,2.00
2018-06-22T18:18:34.422Z,1.63
2018-06-22T18:21:02.092Z,1.70
2018-06-22T18:23:29.717Z,1.33
2018-06-22T18:25:57.388Z,1.57
2018-06-22T18:28:25.008Z,1.37
2018-06-22T18:30:52.634Z,1.77
2018-06-22T18:33:20.278Z,1.57
2018-06-22T18:35:47.953Z,1.83
2018-06-22T18:38:15.722Z,2.30
2018-06-22T18:40:43.418Z,1.70
2018-06-22T18:43:16.694Z,1.63
2018-06-22T18:45:44.364Z,1.47
2018-06-22T18:48:12.068Z,1.27
2018-06-22T18:50:39.737Z,1.50
2018-06-22T18:53:13.048Z,1.57
2018-06-22T18:55:46.361Z,1.63
2018-06-22T18:58:20.216Z,2.00
2018-06-22T19:00:53.584Z,1.83
2018-06-22T19:03:26.722Z,2.00
2018-06-22T19:05:54.418Z,2.33
2018-06-22T19:08:22.124Z,1.90
2018-06-22T19:10:50.019Z,1.83
2018-06-22T19:13:17.779Z,2.10
2018-06-22T19:15:45.609Z,2.07
2018-06-22T19:18:13.555Z,2.00
2018-06-22T19:20:41.213Z,2.30
2018-06-22T19:23:08.863Z,2.50
2018-06-22T19:25:36.519Z,2.43
2018-06-22T19:28:04.553Z,2.27
2018-06-22T19:30:32.235Z,2.20
2018-06-22T19:32:59.950Z,1.47
2018-06-22T19:35:28.392Z,1.33
2018-06-22T19:37:56.086Z,1.60
2018-06-22T19:40:24.333Z,2.50
2018-06-22T19:42:52.335Z,1.90
2018-06-22T19:45:25.629Z,1.67
2018-06-22T19:47:58.911Z,2.27
2018-06-22T19:50:32.216Z,1.70
2018-06-22T19:53:05.585Z,2.30
2018-06-22T19:55:33.367Z,2.40
2018-06-22T19:58:01.114Z,2.90
2018-06-22T20:00:28.810Z,2.40
2018-06-22T20:02:56.486Z,2.63
2018-06-22T20:05:24.106Z,2.10
2018-06-22T20:07:51.820Z,2.90
2018-06-22T20:10:19.552Z,2.53
2018-06-22T20:12:47.213Z,2.13
2018-06-22T20:15:19.471Z,1.60
2018-06-22T20:17:47.147Z,1.90
2018-06-22T20:20:14.829Z,2.10
2018-06-22T20:22:42.560Z,1.73
2018-06-22T20:25:15.742Z,2.27
2018-06-22T20:27:43.391Z,1.80
2018-06-22T20:30:11.047Z,1.70
2018-06-22T20:32:38.723Z,1.90
2018-06-22T20:35:12.035Z,1.97
2018-06-22T20:37:45.225Z,2.23
2018-06-22T20:40:18.533Z,2.27
2018-06-22T20:42:51.783Z,1.80
2018-06-22T20:45:25.094Z,2.40
2018-06-22T20:47:58.316Z,2.27
2018-06-22T20:50:31.713Z,1.93
2018-06-22T20:52:59.374Z,2.97
2018-06-22T20:55:26.968Z,3.70
2018-06-22T20:57:54.621Z,2.70
2018-06-22T21:00:22.320Z,2.13
2018-06-22T21:02:49.914Z,2.47
2018-06-22T21:05:17.553Z,2.17
2018-06-22T21:07:45.188Z,2.17
2018-06-22T21:10:12.849Z,2.57
2018-06-22T21:12:40.887Z,2.07
2018-06-22T21:15:08.197Z,2.40
2018-06-22T21:17:35.827Z,3.17
2018-06-22T21:20:03.521Z,2.43
2018-06-22T21:22:31.173Z,1.90
2018-06-22T21:24:58.686Z,2.23
2018-06-22T21:27:31.901Z,2.07
2018-06-22T21:30:05.118Z,2.47
2018-06-22T21:32:38.265Z,2.47
2018-06-22T21:35:11.470Z,2.20
2018-06-22T21:37:44.633Z,2.40
2018-06-22T21:40:12.194Z,2.43
2018-06-22T21:42:39.725Z,2.10
2018-06-22T21:45:07.289Z,2.07
2018-06-22T21:47:34.844Z,2.70
2018-06-22T21:50:02.440Z,2.37
2018-06-22T21:52:30.006Z,2.20
2018-06-22T21:54:57.569Z,2.50
2018-06-22T21:57:25.242Z,2.27
2018-06-22T21:59:52.797Z,3.42
2018-06-22T22:02:20.445Z,2.22
2018-06-22T22:04:48.043Z,2.27
2018-06-22T22:07:15.614Z,2.75
2018-06-22T22:09:43.613Z,2.10
2018-06-22T22:12:11.335Z,4.50
2018-06-22T22:14:39.469Z,2.58
2018-06-22T22:17:07.199Z,2.27
2018-06-22T22:19:34.994Z,2.30
2018-06-22T22:22:02.612Z,1.80
2018-06-22T22:24:30.253Z,2.40
2018-06-22T22:26:57.854Z,2.80
2018-06-22T22:29:25.428Z,2.10
2018-06-22T22:31:53.088Z,2.55
2018-06-22T22:34:20.666Z,2.00
2018-06-22T22:36:48.201Z,2.70
2018-06-22T22:39:15.819Z,2.83
2018-06-22T22:41:43.421Z,2.52
2018-06-22T22:44:11.014Z,2.20
2018-06-22T22:46:38.905Z,2.37
2018-06-22T22:49:06.459Z,2.67
2018-06-22T22:51:34.050Z,2.50
2018-06-22T22:54:01.651Z,2.25
2018-06-22T22:56:29.256Z,2.62
2018-06-22T22:58:57.090Z,2.52
2018-06-22T23:01:24.718Z,2.65
2018-06-22T23:03:52.381Z,3.20
2018-06-22T23:06:19.964Z,2.40
2018-06-22T23:08:47.559Z,2.60
2018-06-22T23:11:15.281Z,2.85
2018-06-22T23:13:42.902Z,2.67
2018-06-22T23:16:10.439Z,3.00
2018-06-22T23:18:37.975Z,2.72
2018-06-22T23:21:05.585Z,3.30
2018-06-22T23:23:37.581Z,2.80
2018-06-22T23:26:05.589Z,2.90
2018-06-22T23:28:34.079Z,2.42
2018-06-22T23:31:02.770Z,2.87
2018-06-22T23:33:30.793Z,3.20
2018-06-22T23:35:59.027Z,2.45
2018-06-22T23:38:26.646Z,2.55
2018-06-22T23:40:54.389Z,2.35
2018-06-22T23:43:21.939Z,3.70
2018-06-22T23:45:49.501Z,2.62
2018-06-22T23:48:17.049Z,3.60
2018-06-22T23:50:44.727Z,2.80
2018-06-22T23:53:12.297Z,3.10
2018-06-22T23:55:39.850Z,3.00
2018-06-22T23:58:08.043Z,3.40
